Time;durP1;ratioP1;P1;durP2;ratioP2;P2;SDS_P1;SDS_P2;PMS_P1;PMS_P2;Temp;Humidity;BMP_temperature;BMP_pressure;BME280_temperature;BME280_humidity;BME280_pressure;Samples;Min_cycle;Max_cycle;Signal;HPM_P1;HPM_P2
2024/03/10 00:00:26;;;;;;;6.78;3.72;;;;;;;;;;1044409;28;20025;-77
2024/03/10 00:00:57;;;;;;;26.58;5.50;;;;;;;;;;1043872;28;20068;-77
2024/03/10 00:01:27;;;;;;;15.73;6.93;;;;;;;;;;1042065;28;20029;-77
2024/03/10 00:01:58;;;;;;;3.08;2.78;;;;;;;;;;1040518;28;20594;-77
2024/03/10 00:02:29;;;;;;;6.20;3.75;;;;;;;;;;1041149;28;20017;-77
2024/03/10 00:03:04;;;;;;;5.57;4.00;;;;;;;;;;1044335;28;20048;-77
2024/03/10 00:03:36;;;;;;;5.13;3.92;;;;;;;;;;1043738;28;20029;-77
2024/03/10 00:04:07;;;;;;;9.43;4.72;;;;;;;;;;1043779;28;20027;-77
2024/03/10 00:04:37;;;;;;;8.38;5.72;;;;;;;;;;1044293;28;20025;-77
2024/03/10 00:05:08;;;;;;;5.47;4.07;;;;;;;;;;1044328;28;20066;-77
2024/03/10 00:05:41;;;;;;;6.93;5.32;;;;;;;;;;1044144;28;20029;-77
2024/03/10 00:06:12;;;;;;;23.55;5.40;;;;;;;;;;1043559;28;20107;-77
2024/03/10 00:06:42;;;;;;;10.25;7.25;;;;;;;;;;1043533;28;20461;-77
2024/03/10 00:07:13;;;;;;;16.13;8.07;;;;;;;;;;1041936;28;20018;-77
2024/03/10 00:07:46;;;;;;;10.27;3.80;;;;;;;;;;1042189;28;20029;-77
2024/03/10 00:08:16;;;;;;;10.25;4.05;;;;;;;;;;1038610;28;20021;-77
2024/03/10 00:08:47;;;;;;;14.90;7.22;;;;;;;;;;1040147;28;20358;-77
2024/03/10 00:09:17;;;;;;;12.55;4.78;;;;;;;;;;1043497;28;20551;-77
2024/03/10 00:09:49;;;;;;;12.15;4.72;;;;;;;;;;1043901;28;20423;-77
2024/03/10 00:10:19;;;;;;;9.20;5.97;;;;;;;;;;1043630;28;20051;-77
2024/03/10 00:10:50;;;;;;;3.50;3.22;;;;;;;;;;1044212;28;20131;-78
2024/03/10 00:11:21;;;;;;;1.67;1.50;;;;;;;;;;1041807;28;20021;-78
2024/03/10 00:11:51;;;;;;;14.20;5.22;;;;;;;;;;1042252;28;20171;-77
2024/03/10 00:12:22;;;;;;;2.95;2.75;;;;;;;;;;1043657;28;20561;-77
2024/03/10 00:12:52;;;;;;;2.08;1.92;;;;;;;;;;1044232;28;20052;-77
2024/03/10 00:13:23;;;;;;;10.88;4.72;;;;;;;;;;1043796;28;20480;-77
2024/03/10 00:13:54;;;;;;;4.85;2.75;;;;;;;;;;1043695;28;20116;-77
2024/03/10 00:14:26;;;;;;;5.45;3.13;;;;;;;;;;1042057;28;20043;-77
2024/03/10 00:14:57;;;;;;;7.50;4.88;;;;;;;;;;1041608;28;20025;-77
2024/03/10 00:15:27;;;;;;;13.75;5.38;;;;;;;;;;1042628;28;20021;-77
2024/03/10 00:15:58;;;;;;;6.72;5.03;;;;;;;;;;1043913;28;20214;-77
2024/03/10 00:16:28;;;;;;;8.68;4.47;;;;;;;;;;1044076;28;20033;-77
2024/03/10 00:16:59;;;;;;;24.25;4.45;;;;;;;;;;1043990;28;20385;-77
2024/03/10 00:17:30;;;;;;;8.32;4.05;;;;;;;;;;1044006;28;20484;-77
2024/03/10 00:18:00;;;;;;;2.85;2.50;;;;;;;;;;1043028;28;20131;-77
2024/03/10 00:18:32;;;;;;;8.18;5.15;;;;;;;;;;1042218;28;20380;-77
2024/03/10 00:19:03;;;;;;;5.30;4.20;;;;;;;;;;1042163;28;20013;-77
2024/03/10 00:19:34;;;;;;;10.38;4.57;;;;;;;;;;1044025;28;20551;-77
2024/03/10 00:20:04;;;;;;;3.70;3.38;;;;;;;;;;1043722;28;20107;-78
2024/03/10 00:20:35;;;;;;;24.13;5.80;;;;;;;;;;1043829;28;20111;-78
2024/03/10 00:21:05;;;;;;;4.75;2.22;;;;;;;;;;1043977;28;20025;-78
2024/03/10 00:21:36;;;;;;;13.88;5.68;;;;;;;;;;1043587;28;20025;-78
2024/03/10 00:22:06;;;;;;;2.78;2.58;;;;;;;;;;1044860;28;20059;-78
2024/03/10 00:22:38;;;;;;;19.90;7.85;;;;;;;;;;1042638;28;20116;-78
2024/03/10 00:23:09;;;;;;;5.80;2.03;;;;;;;;;;1043127;28;20028;-78
2024/03/10 00:23:40;;;;;;;9.60;4.15;;;;;;;;;;1044654;28;20021;-77
2024/03/10 00:24:11;;;;;;;12.45;6.63;;;;;;;;;;1043981;28;20040;-77
2024/03/10 00:24:42;;;;;;;3.67;2.88;;;;;;;;;;1044905;28;20031;-77
2024/03/10 00:25:13;;;;;;;4.45;1.95;;;;;;;;;;1043855;28;20017;-77
2024/03/10 00:25:43;;;;;;;1.20;1.13;;;;;;;;;;1044623;28;20017;-77
2024/03/10 00:26:14;;;;;;;4.30;2.47;;;;;;;;;;1044826;28;20021;-77
2024/03/10 00:26:44;;;;;;;9.95;2.13;;;;;;;;;;1045018;28;20024;-77
2024/03/10 00:27:16;;;;;;;6.75;5.25;;;;;;;;;;1044985;28;20032;-77
2024/03/10 00:27:47;;;;;;;1.77;1.67;;;;;;;;;;1044814;28;20021;-77
2024/03/10 00:28:17;;;;;;;2.88;2.67;;;;;;;;;;1045635;28;20507;-77
2024/03/10 00:28:49;;;;;;;9.50;4.22;;;;;;;;;;1044638;28;20058;-77
2024/03/10 00:29:19;;;;;;;6.00;3.88;;;;;;;;;;1044219;28;20028;-77
2024/03/10 00:29:50;;;;;;;11.05;3.20;;;;;;;;;;1040771;28;20528;-77
2024/03/10 00:30:20;;;;;;;3.55;3.25;;;;;;;;;;1037284;28;20496;-77
2024/03/10 00:30:51;;;;;;;4.28;3.58;;;;;;;;;;1038310;28;20528;-78
2024/03/10 00:31:21;;;;;;;4.60;4.30;;;;;;;;;;1040331;28;20032;-78
2024/03/10 00:31:52;;;;;;;10.18;2.97;;;;;;;;;;1044750;28;20025;-77
2024/03/10 00:32:24;;;;;;;11.48;4.68;;;;;;;;;;1045300;28;20032;-77
2024/03/10 00:32:55;;;;;;;6.47;3.55;;;;;;;;;;1044521;28;20112;-77
2024/03/10 00:33:26;;;;;;;1.02;1.02;;;;;;;;;;1045073;28;20051;-77
2024/03/10 00:33:56;;;;;;;7.05;2.60;;;;;;;;;;1044523;28;20032;-77
2024/03/10 00:34:27;;;;;;;2.38;2.25;;;;;;;;;;1044441;28;20112;-77
2024/03/10 00:34:58;;;;;;;9.27;5.38;;;;;;;;;;1044690;28;20103;-77
2024/03/10 00:35:29;;;;;;;2.78;1.95;;;;;;;;;;1044351;28;20024;-77
2024/03/10 00:35:59;;;;;;;10.07;4.25;;;;;;;;;;1044580;28;20384;-77
2024/03/10 00:36:30;;;;;;;16.10;4.32;;;;;;;;;;1044537;28;20111;-77
2024/03/10 00:37:01;;;;;;;3.25;2.95;;;;;;;;;;1040149;28;20484;-77
2024/03/10 00:37:32;;;;;;;6.38;2.35;;;;;;;;;;1044152;28;20025;-77
2024/03/10 00:38:02;;;;;;;4.10;3.75;;;;;;;;;;1042396;28;20127;-77
2024/03/10 00:38:33;;;;;;;2.90;2.60;;;;;;;;;;1043484;28;20027;-77
2024/03/10 00:39:04;;;;;;;9.05;5.60;;;;;;;;;;1044426;28;20027;-78
2024/03/10 00:39:35;;;;;;;5.00;4.60;;;;;;;;;;1044537;28;20391;-78
2024/03/10 00:40:06;;;;;;;4.22;1.73;;;;;;;;;;1045504;28;20028;-78
2024/03/10 00:40:37;;;;;;;3.70;3.33;;;;;;;;;;1044501;28;20092;-78
2024/03/10 00:41:07;;;;;;;6.95;4.65;;;;;;;;;;1044347;28;20024;-78
2024/03/10 00:41:39;;;;;;;2.83;2.10;;;;;;;;;;1044582;28;20021;-78
2024/03/10 00:42:10;;;;;;;5.97;5.45;;;;;;;;;;1045218;28;20098;-78
2024/03/10 00:42:42;;;;;;;14.20;4.05;;;;;;;;;;1044841;28;20086;-78
2024/03/10 00:43:12;;;;;;;5.15;4.25;;;;;;;;;;1044696;28;20168;-78
2024/03/10 00:43:42;;;;;;;2.65;2.35;;;;;;;;;;1044544;28;20048;-78
2024/03/10 00:44:13;;;;;;;5.78;4.85;;;;;;;;;;1044525;28;20021;-78
2024/03/10 00:44:43;;;;;;;12.60;2.90;;;;;;;;;;1044887;28;20028;-78
2024/03/10 00:45:14;;;;;;;5.38;3.70;;;;;;;;;;1044352;28;20033;-78
2024/03/10 00:45:44;;;;;;;5.10;4.65;;;;;;;;;;1044636;28;20538;-78
2024/03/10 00:46:15;;;;;;;8.25;2.92;;;;;;;;;;1044590;28;20493;-78
2024/03/10 00:46:45;;;;;;;7.35;4.18;;;;;;;;;;1042205;28;20103;-78
2024/03/10 00:47:16;;;;;;;4.03;3.10;;;;;;;;;;1042070;28;20108;-78
2024/03/10 00:47:48;;;;;;;2.15;1.95;;;;;;;;;;1042736;28;20052;-78
2024/03/10 00:48:18;;;;;;;15.40;4.70;;;;;;;;;;1042600;28;20029;-78
2024/03/10 00:48:49;;;;;;;12.90;2.63;;;;;;;;;;1044599;28;20381;-78
2024/03/10 00:49:19;;;;;;;4.88;4.43;;;;;;;;;;1044245;28;20095;-78
2024/03/10 00:49:50;;;;;;;4.22;3.90;;;;;;;;;;1045098;28;20036;-78
2024/03/10 00:50:21;;;;;;;4.10;3.00;;;;;;;;;;1045089;28;20057;-78
2024/03/10 00:50:51;;;;;;;6.40;3.22;;;;;;;;;;1044598;28;20124;-78
2024/03/10 00:51:21;;;;;;;11.25;2.75;;;;;;;;;;1044366;28;20020;-78
2024/03/10 00:51:52;;;;;;;17.58;6.50;;;;;;;;;;1045454;28;20016;-78
2024/03/10 00:52:22;;;;;;;8.13;4.50;;;;;;;;;;1045854;28;20079;-78
2024/03/10 00:52:53;;;;;;;9.98;7.32;;;;;;;;;;1044510;28;20104;-78
2024/03/10 00:53:24;;;;;;;16.15;6.22;;;;;;;;;;1044362;28;20170;-78
2024/03/10 00:53:54;;;;;;;7.22;4.53;;;;;;;;;;1044432;28;20025;-78
2024/03/10 00:54:24;;;;;;;5.22;3.90;;;;;;;;;;1044317;28;20036;-78
2024/03/10 00:54:55;;;;;;;3.53;3.17;;;;;;;;;;1045145;28;20021;-78
2024/03/10 00:55:26;;;;;;;7.00;3.67;;;;;;;;;;1044593;28;20035;-78
2024/03/10 00:55:56;;;;;;;4.20;3.70;;;;;;;;;;1045599;28;20032;-78
2024/03/10 00:56:27;;;;;;;10.60;6.65;;;;;;;;;;1044406;28;20052;-78
2024/03/10 00:56:58;;;;;;;15.35;4.78;;;;;;;;;;1042771;28;20025;-77
2024/03/10 00:57:28;;;;;;;2.83;2.63;;;;;;;;;;1042830;28;20048;-77
2024/03/10 00:57:59;;;;;;;7.03;3.60;;;;;;;;;;1044565;28;20475;-77
2024/03/10 00:58:30;;;;;;;4.07;3.25;;;;;;;;;;1044386;28;20048;-77
2024/03/10 00:59:00;;;;;;;5.72;2.65;;;;;;;;;;1044597;28;20016;-78
2024/03/10 00:59:31;;;;;;;9.20;4.55;;;;;;;;;;1044528;28;20083;-78
2024/03/10 01:00:01;;;;;;;16.63;5.05;;;;;;;;;;1041691;28;20092;-78
2024/03/10 01:00:32;;;;;;;6.60;2.63;;;;;;;;;;1044368;28;20021;-78
2024/03/10 01:01:04;;;;;;;5.93;4.75;;;;;;;;;;1044399;28;20055;-77
2024/03/10 01:01:34;;;;;;;5.35;3.30;;;;;;;;;;1045111;28;20159;-77
2024/03/10 01:02:05;;;;;;;7.15;3.92;;;;;;;;;;1044213;28;20155;-77
2024/03/10 01:02:37;;;;;;;11.30;6.85;;;;;;;;;;1042501;28;20025;-77
2024/03/10 01:03:11;;;;;;;7.78;3.42;;;;;;;;;;1042212;28;20021;-77
2024/03/10 01:03:42;;;;;;;6.80;5.15;;;;;;;;;;1043402;28;20017;-77
2024/03/10 01:04:13;;;;;;;6.28;4.75;;;;;;;;;;1044260;28;20111;-77
2024/03/10 01:04:44;;;;;;;9.48;3.85;;;;;;;;;;1041348;28;20030;-77
2024/03/10 01:05:14;;;;;;;12.85;8.20;;;;;;;;;;1040435;28;20020;-77
2024/03/10 01:05:46;;;;;;;7.38;3.90;;;;;;;;;;1040371;28;20083;-77
2024/03/10 01:06:16;;;;;;;17.25;4.60;;;;;;;;;;1037939;28;20117;-78
2024/03/10 01:06:47;;;;;;;8.02;2.53;;;;;;;;;;1042872;28;20066;-78
2024/03/10 01:07:18;;;;;;;2.60;2.25;;;;;;;;;;1043620;28;20535;-78
2024/03/10 01:07:49;;;;;;;4.70;1.70;;;;;;;;;;1045820;28;20024;-78
2024/03/10 01:08:20;;;;;;;4.22;2.60;;;;;;;;;;1044228;28;20117;-78
2024/03/10 01:08:50;;;;;;;9.60;4.25;;;;;;;;;;1042455;28;20504;-78
2024/03/10 01:09:21;;;;;;;10.27;6.68;;;;;;;;;;1042169;28;20025;-79
2024/03/10 01:09:51;;;;;;;9.90;3.50;;;;;;;;;;1041789;28;20024;-78
2024/03/10 01:10:23;;;;;;;18.55;4.68;;;;;;;;;;1043103;28;20012;-78
2024/03/10 01:10:53;;;;;;;2.17;2.08;;;;;;;;;;1038534;28;20017;-78
2024/03/10 01:11:23;;;;;;;4.15;3.63;;;;;;;;;;1038043;28;20056;-78
2024/03/10 01:11:54;;;;;;;2.38;2.22;;;;;;;;;;1042572;28;20374;-78
2024/03/10 01:12:24;;;;;;;7.60;2.75;;;;;;;;;;1046464;28;20096;-78
2024/03/10 01:12:55;;;;;;;3.80;3.25;;;;;;;;;;1044989;28;20025;-78
2024/03/10 01:13:27;;;;;;;2.38;1.95;;;;;;;;;;1046613;28;20013;-78
2024/03/10 01:13:57;;;;;;;5.32;3.85;;;;;;;;;;1044636;28;20036;-78
2024/03/10 01:14:28;;;;;;;9.82;4.85;;;;;;;;;;1044279;28;20362;-78
2024/03/10 01:14:58;;;;;;;4.72;3.13;;;;;;;;;;1045350;28;20099;-78
2024/03/10 01:15:31;;;;;;;10.07;5.07;;;;;;;;;;1045786;28;20081;-78
2024/03/10 01:16:03;;;;;;;4.80;2.78;;;;;;;;;;1044686;28;20100;-78
2024/03/10 01:16:33;;;;;;;10.52;4.93;;;;;;;;;;1044425;28;20012;-77
2024/03/10 01:17:04;;;;;;;2.30;2.15;;;;;;;;;;1044260;28;20012;-78
2024/03/10 01:17:34;;;;;;;5.43;2.85;;;;;;;;;;1044729;28;20016;-78
2024/03/10 01:18:05;;;;;;;3.78;3.42;;;;;;;;;;1040253;28;20028;-78
2024/03/10 01:18:37;;;;;;;3.15;2.92;;;;;;;;;;1044461;28;20666;-77
2024/03/10 01:19:11;;;;;;;2.83;2.25;;;;;;;;;;1044325;28;20017;-77
2024/03/10 01:19:44;;;;;;;8.63;3.20;;;;;;;;;;1041342;28;20021;-78
2024/03/10 01:20:14;;;;;;;21.58;5.82;;;;;;;;;;1044833;28;20017;-78
2024/03/10 01:20:46;;;;;;;6.43;3.22;;;;;;;;;;1044463;28;20055;-78
2024/03/10 01:21:16;;;;;;;5.63;1.90;;;;;;;;;;1044145;28;20115;-78
2024/03/10 01:21:47;;;;;;;9.02;3.10;;;;;;;;;;1044078;28;20043;-77
2024/03/10 01:22:18;;;;;;;9.80;4.70;;;;;;;;;;1045773;28;20020;-77
2024/03/10 01:22:48;;;;;;;10.52;5.90;;;;;;;;;;1044299;28;20031;-77
2024/03/10 01:23:19;;;;;;;5.47;2.30;;;;;;;;;;1042699;28;20029;-77
2024/03/10 01:23:52;;;;;;;5.55;3.88;;;;;;;;;;1037906;28;20449;-78
2024/03/10 01:24:23;;;;;;;2.88;1.92;;;;;;;;;;1035931;28;20552;-78
2024/03/10 01:24:54;;;;;;;9.50;3.70;;;;;;;;;;1037495;28;20029;-77
2024/03/10 01:25:24;;;;;;;5.00;3.08;;;;;;;;;;1039930;28;20136;-77
2024/03/10 01:25:55;;;;;;;6.30;2.85;;;;;;;;;;1044483;28;20021;-77
2024/03/10 01:26:25;;;;;;;6.18;5.68;;;;;;;;;;1044561;28;20033;-77
2024/03/10 01:26:58;;;;;;;5.28;3.58;;;;;;;;;;1044738;28;20024;-77
2024/03/10 01:27:29;;;;;;;2.60;2.35;;;;;;;;;;1045144;28;20074;-78
2024/03/10 01:27:59;;;;;;;5.65;3.38;;;;;;;;;;1043211;28;20090;-78
2024/03/10 01:28:30;;;;;;;9.48;3.45;;;;;;;;;;1040222;28;20091;-78
2024/03/10 01:29:00;;;;;;;11.45;3.95;;;;;;;;;;1040185;28;20024;-78
2024/03/10 01:29:32;;;;;;;5.90;2.80;;;;;;;;;;1041339;28;20131;-78
2024/03/10 01:30:03;;;;;;;8.38;4.20;;;;;;;;;;1040618;28;20029;-78
2024/03/10 01:30:34;;;;;;;4.95;3.40;;;;;;;;;;1044583;28;20028;-78
2024/03/10 01:31:05;;;;;;;6.57;2.90;;;;;;;;;;1044307;28;20021;-78
2024/03/10 01:31:35;;;;;;;3.47;3.20;;;;;;;;;;1045972;28;20026;-78
2024/03/10 01:32:07;;;;;;;3.95;3.55;;;;;;;;;;1045155;28;20516;-78
2024/03/10 01:32:38;;;;;;;5.90;3.70;;;;;;;;;;1044282;28;20028;-78
2024/03/10 01:33:08;;;;;;;5.43;4.20;;;;;;;;;;1044782;28;20028;-78
2024/03/10 01:33:39;;;;;;;5.40;3.20;;;;;;;;;;1044770;28;21190;-78
2024/03/10 01:34:10;;;;;;;4.00;2.15;;;;;;;;;;1044151;28;20499;-78
2024/03/10 01:34:40;;;;;;;2.72;2.53;;;;;;;;;;1044323;28;20032;-78
2024/03/10 01:35:11;;;;;;;4.70;3.58;;;;;;;;;;1044551;28;20115;-78
2024/03/10 01:35:42;;;;;;;7.68;4.47;;;;;;;;;;1043057;28;20025;-78
2024/03/10 01:36:13;;;;;;;10.70;4.90;;;;;;;;;;1042534;28;20026;-78
2024/03/10 01:36:43;;;;;;;1.77;1.38;;;;;;;;;;1044004;28;20508;-78
2024/03/10 01:37:14;;;;;;;6.15;4.10;;;;;;;;;;1044265;28;20820;-78
2024/03/10 01:37:44;;;;;;;14.77;5.10;;;;;;;;;;1044241;28;20035;-78
2024/03/10 01:38:18;;;;;;;5.43;2.95;;;;;;;;;;1044746;28;20023;-78
2024/03/10 01:38:49;;;;;;;11.38;5.10;;;;;;;;;;1043554;28;20472;-78
2024/03/10 01:39:19;;;;;;;2.42;1.80;;;;;;;;;;1044159;28;20025;-78
2024/03/10 01:39:50;;;;;;;3.90;3.53;;;;;;;;;;1044777;28;20391;-78
2024/03/10 01:40:20;;;;;;;3.00;2.80;;;;;;;;;;1045246;28;20021;-78
2024/03/10 01:40:51;;;;;;;2.65;2.42;;;;;;;;;;1044866;28;20029;-78
2024/03/10 01:41:22;;;;;;;2.85;2.60;;;;;;;;;;1045757;28;20468;-77
2024/03/10 01:41:54;;;;;;;5.53;2.60;;;;;;;;;;1046291;28;20580;-78
2024/03/10 01:42:25;;;;;;;2.17;2.08;;;;;;;;;;1044533;28;20474;-78
2024/03/10 01:42:56;;;;;;;2.72;2.35;;;;;;;;;;1044664;28;20029;-78
2024/03/10 01:43:26;;;;;;;2.42;1.95;;;;;;;;;;1044222;28;20027;-78
2024/03/10 01:43:57;;;;;;;4.13;2.92;;;;;;;;;;1044468;28;20357;-78
2024/03/10 01:44:28;;;;;;;8.45;2.80;;;;;;;;;;1044543;28;20411;-78
2024/03/10 01:44:59;;;;;;;7.80;3.22;;;;;;;;;;1045585;28;20461;-78
2024/03/10 01:45:32;;;;;;;13.68;4.75;;;;;;;;;;1044166;28;20013;-78
2024/03/10 01:46:08;;;;;;;1.48;1.10;;;;;;;;;;1042479;28;20021;-78
2024/03/10 01:46:39;;;;;;;3.10;2.83;;;;;;;;;;1041912;28;20052;-78
2024/03/10 01:47:10;;;;;;;6.05;1.77;;;;;;;;;;1042887;28;20040;-78
2024/03/10 01:47:41;;;;;;;1.67;1.58;;;;;;;;;;1042252;28;20017;-78
2024/03/10 01:48:11;;;;;;;3.10;2.35;;;;;;;;;;1041295;28;20518;-78
2024/03/10 01:48:43;;;;;;;3.05;2.75;;;;;;;;;;1040079;28;20064;-78
2024/03/10 01:49:14;;;;;;;5.57;3.50;;;;;;;;;;1040255;28;20536;-78
2024/03/10 01:49:45;;;;;;;14.88;6.63;;;;;;;;;;1044319;28;20043;-78
2024/03/10 01:50:15;;;;;;;1.45;1.25;;;;;;;;;;1040061;28;20026;-78
2024/03/10 01:50:47;;;;;;;7.55;4.63;;;;;;;;;;1037473;28;20010;-78
2024/03/10 01:51:18;;;;;;;4.75;2.85;;;;;;;;;;1040032;28;20072;-78
2024/03/10 01:51:49;;;;;;;5.13;3.22;;;;;;;;;;1040964;28;20014;-78
2024/03/10 01:52:19;;;;;;;9.00;5.72;;;;;;;;;;1040303;28;20517;-78
2024/03/10 01:52:50;;;;;;;4.22;3.83;;;;;;;;;;1044420;28;20029;-78
2024/03/10 01:53:20;;;;;;;13.95;2.50;;;;;;;;;;1040902;28;20020;-78
2024/03/10 01:53:51;;;;;;;5.15;4.53;;;;;;;;;;1044418;28;20148;-78
2024/03/10 01:54:25;;;;;;;6.00;2.40;;;;;;;;;;1044232;28;20025;-78
2024/03/10 01:54:57;;;;;;;1.80;1.75;;;;;;;;;;1040838;28;20035;-78
2024/03/10 01:55:28;;;;;;;2.63;2.42;;;;;;;;;;1043756;28;20025;-78
2024/03/10 01:55:59;;;;;;;2.85;1.38;;;;;;;;;;1044249;28;20029;-77
2024/03/10 01:56:30;;;;;;;1.65;0.90;;;;;;;;;;1040429;28;20020;-77
2024/03/10 01:57:00;;;;;;;4.43;4.03;;;;;;;;;;1044131;28;20032;-77
2024/03/10 01:57:31;;;;;;;19.75;4.80;;;;;;;;;;1039914;28;20025;-77
2024/03/10 01:58:01;;;;;;;7.55;3.35;;;;;;;;;;1038346;28;20162;-78
2024/03/10 01:58:32;;;;;;;4.07;3.80;;;;;;;;;;1041142;28;20560;-78
2024/03/10 01:59:04;;;;;;;12.18;2.25;;;;;;;;;;1035880;28;20030;-78
2024/03/10 01:59:34;;;;;;;6.32;3.63;;;;;;;;;;1040432;28;20033;-78
2024/03/10 02:00:05;;;;;;;5.60;3.65;;;;;;;;;;1044314;28;20017;-78
2024/03/10 02:00:38;;;;;;;5.60;3.90;;;;;;;;;;1046450;28;20039;-78
2024/03/10 02:01:09;;;;;;;4.53;2.35;;;;;;;;;;1047050;28;20017;-78
2024/03/10 02:01:39;;;;;;;3.88;1.58;;;;;;;;;;1045111;28;20035;-78
2024/03/10 02:02:10;;;;;;;16.70;2.65;;;;;;;;;;1042236;28;20028;-78
2024/03/10 02:02:41;;;;;;;8.38;5.07;;;;;;;;;;1042015;28;20029;-78
2024/03/10 02:03:12;;;;;;;1.92;1.83;;;;;;;;;;1044592;28;20080;-78
2024/03/10 02:03:43;;;;;;;5.32;3.10;;;;;;;;;;1044684;28;20033;-78
2024/03/10 02:04:14;;;;;;;5.57;1.50;;;;;;;;;;1044284;28;20032;-78
2024/03/10 02:04:45;;;;;;;12.35;4.80;;;;;;;;;;1044104;28;20025;-78
2024/03/10 02:05:17;;;;;;;7.88;5.28;;;;;;;;;;1044045;28;20051;-78
2024/03/10 02:05:47;;;;;;;6.18;5.57;;;;;;;;;;1044349;28;20039;-78
2024/03/10 02:06:17;;;;;;;3.40;2.17;;;;;;;;;;1045605;28;20024;-78
2024/03/10 02:06:50;;;;;;;2.60;2.38;;;;;;;;;;1044256;28;20029;-78
2024/03/10 02:07:20;;;;;;;5.47;3.28;;;;;;;;;;1044353;28;20492;-78
2024/03/10 02:07:51;;;;;;;2.85;2.25;;;;;;;;;;1044148;28;20104;-78
2024/03/10 02:08:22;;;;;;;3.25;2.95;;;;;;;;;;1042142;28;20091;-76
2024/03/10 02:08:54;;;;;;;9.10;4.35;;;;;;;;;;1040192;28;20493;-77
2024/03/10 02:09:24;;;;;;;2.88;1.88;;;;;;;;;;1040049;28;20021;-77
2024/03/10 02:09:56;;;;;;;2.95;2.67;;;;;;;;;;1042449;28;20383;-77
2024/03/10 02:10:26;;;;;;;2.28;2.17;;;;;;;;;;1043134;28;20172;-77
2024/03/10 02:10:57;;;;;;;1.48;1.42;;;;;;;;;;1044410;28;20025;-77
2024/03/10 02:11:27;;;;;;;11.90;2.05;;;;;;;;;;1044311;28;20025;-77
2024/03/10 02:11:58;;;;;;;3.53;3.30;;;;;;;;;;1044791;28;20013;-76
2024/03/10 02:12:28;;;;;;;2.35;2.15;;;;;;;;;;1044588;28;20028;-76
2024/03/10 02:12:59;;;;;;;19.27;6.55;;;;;;;;;;1044481;28;20025;-76
2024/03/10 02:13:29;;;;;;;2.78;2.58;;;;;;;;;;1043434;28;20024;-77
2024/03/10 02:13:59;;;;;;;3.50;2.53;;;;;;;;;;1044560;28;20025;-77
2024/03/10 02:14:30;;;;;;;5.32;4.53;;;;;;;;;;1044624;28;20032;-77
2024/03/10 02:15:01;;;;;;;7.18;3.53;;;;;;;;;;1044783;28;20025;-78
2024/03/10 02:15:32;;;;;;;4.80;2.55;;;;;;;;;;1044115;28;20017;-77
2024/03/10 02:16:03;;;;;;;35.80;5.43;;;;;;;;;;1044116;28;20017;-77
2024/03/10 02:16:33;;;;;;;3.53;3.30;;;;;;;;;;1043091;28;20500;-77
2024/03/10 02:17:04;;;;;;;22.50;4.85;;;;;;;;;;1043934;28;20021;-77
2024/03/10 02:17:37;;;;;;;2.40;2.28;;;;;;;;;;1044731;28;20024;-77
2024/03/10 02:18:08;;;;;;;10.73;2.55;;;;;;;;;;1043388;28;20031;-77
2024/03/10 02:18:38;;;;;;;5.93;3.78;;;;;;;;;;1044185;28;20031;-77
2024/03/10 02:19:09;;;;;;;8.73;4.13;;;;;;;;;;1039769;28;20029;-76
2024/03/10 02:19:39;;;;;;;1.88;1.73;;;;;;;;;;1038175;28;20075;-76
2024/03/10 02:20:19;;;;;;;1.67;1.55;;;;;;;;;;1040085;28;20081;-76
2024/03/10 02:20:50;;;;;;;12.00;4.40;;;;;;;;;;1041655;28;20033;-77
2024/03/10 02:21:24;;;;;;;2.85;2.50;;;;;;;;;;1042395;28;20055;-77
2024/03/10 02:21:54;;;;;;;3.40;2.42;;;;;;;;;;1039846;28;20022;-77
2024/03/10 02:22:26;;;;;;;3.00;2.70;;;;;;;;;;1039992;28;20382;-77
2024/03/10 02:22:57;;;;;;;1.00;0.95;;;;;;;;;;1040349;28;20161;-77
2024/03/10 02:23:40;;;;;;;6.32;3.20;;;;;;;;;;1042849;28;20524;-77
2024/03/10 02:24:16;;;;;;;2.08;1.90;;;;;;;;;;1044183;28;20098;-77
2024/03/10 02:24:50;;;;;;;2.58;2.38;;;;;;;;;;1044245;28;20115;-77
2024/03/10 02:25:23;;;;;;;5.35;2.72;;;;;;;;;;1042020;28;20020;-77
2024/03/10 02:25:58;;;;;;;4.10;3.08;;;;;;;;;;1043216;28;20020;-77
2024/03/10 02:26:32;;;;;;;6.97;4.03;;;;;;;;;;1044412;28;20030;-77
2024/03/10 02:27:03;;;;;;;10.48;4.82;;;;;;;;;;1044106;28;20114;-77
2024/03/10 02:27:42;;;;;;;2.90;1.90;;;;;;;;;;1044452;28;20029;-77
2024/03/10 02:28:20;;;;;;;2.20;1.98;;;;;;;;;;1044043;28;20028;-77
2024/03/10 02:29:04;;;;;;;1.20;1.13;;;;;;;;;;1044379;28;20062;-77
2024/03/10 02:29:49;;;;;;;4.72;1.75;;;;;;;;;;1044128;28;20467;-77
2024/03/10 02:30:29;;;;;;;5.25;2.63;;;;;;;;;;1043998;28;20566;-77
2024/03/10 02:47:11;;;;;;;4.07;2.78;;;;;;;;;;1044382;28;20026;-77
2024/03/10 02:47:18;;;;;;;2.45;2.25;;;;;;;;;;1043523;28;20123;-77
2024/03/10 02:47:49;;;;;;;7.95;3.60;;;;;;;;;;1044186;28;20020;-76
2024/03/10 02:48:20;;;;;;;2.60;2.45;;;;;;;;;;1041069;28;20107;-77
2024/03/10 02:48:50;;;;;;;4.22;3.83;;;;;;;;;;1042597;28;20024;-77
2024/03/10 02:49:20;;;;;;;8.00;3.50;;;;;;;;;;1041857;28;20018;-77
2024/03/10 02:49:51;;;;;;;9.68;3.65;;;;;;;;;;1044419;28;20056;-77
2024/03/10 02:50:21;;;;;;;4.38;2.90;;;;;;;;;;1044395;28;20032;-77
2024/03/10 02:50:52;;;;;;;2.63;2.25;;;;;;;;;;1044152;28;20028;-77
2024/03/10 02:51:23;;;;;;;3.42;2.00;;;;;;;;;;1043823;28;20557;-76
2024/03/10 02:51:53;;;;;;;3.47;3.08;;;;;;;;;;1043830;28;20189;-77
2024/03/10 02:52:23;;;;;;;3.92;3.45;;;;;;;;;;1043999;28;20111;-77
2024/03/10 02:52:54;;;;;;;7.00;5.88;;;;;;;;;;1044107;28;20543;-77
2024/03/10 02:53:24;;;;;;;6.32;4.18;;;;;;;;;;1043759;28;20535;-77
2024/03/10 02:53:55;;;;;;;1.77;1.67;;;;;;;;;;1041067;28;20025;-77
2024/03/10 02:54:25;;;;;;;3.67;2.72;;;;;;;;;;1040861;28;20030;-77
2024/03/10 02:54:56;;;;;;;6.22;3.15;;;;;;;;;;1044177;28;20080;-77
2024/03/10 02:55:26;;;;;;;4.80;3.17;;;;;;;;;;1044113;28;20499;-77
2024/03/10 02:55:57;;;;;;;5.43;2.80;;;;;;;;;;1044183;28;20031;-77
2024/03/10 02:56:27;;;;;;;2.25;1.92;;;;;;;;;;1044355;28;20401;-77
2024/03/10 02:56:58;;;;;;;6.15;3.67;;;;;;;;;;1043867;28;20017;-77
2024/03/10 02:57:30;;;;;;;6.47;4.57;;;;;;;;;;1044022;28;20033;-77
2024/03/10 02:58:04;;;;;;;1.60;1.50;;;;;;;;;;1042285;28;20028;-77
2024/03/10 02:58:38;;;;;;;4.93;3.78;;;;;;;;;;1042990;28;20135;-77
2024/03/10 02:59:09;;;;;;;3.15;2.72;;;;;;;;;;1039680;28;20025;-77
2024/03/10 02:59:39;;;;;;;2.53;2.30;;;;;;;;;;1041023;28;20473;-77
2024/03/10 03:00:13;;;;;;;4.55;2.05;;;;;;;;;;1043833;28;20021;-77
2024/03/10 03:00:43;;;;;;;4.95;4.10;;;;;;;;;;1044145;28;20025;-77
2024/03/10 03:01:16;;;;;;;3.08;2.85;;;;;;;;;;1044355;28;20032;-77
2024/03/10 03:01:46;;;;;;;3.70;2.78;;;;;;;;;;1044091;28;20106;-77
2024/03/10 03:02:19;;;;;;;12.88;4.75;;;;;;;;;;1041940;28;20432;-77
2024/03/10 03:02:49;;;;;;;6.55;3.97;;;;;;;;;;1041900;28;20099;-77
2024/03/10 03:03:20;;;;;;;7.10;2.85;;;;;;;;;;1041387;28;20025;-76
2024/03/10 03:03:53;;;;;;;2.05;1.80;;;;;;;;;;1042738;28;20067;-77
2024/03/10 03:04:26;;;;;;;3.42;2.40;;;;;;;;;;1046274;28;20019;-77
2024/03/10 03:04:57;;;;;;;2.20;2.00;;;;;;;;;;1046259;28;20047;-77
2024/03/10 03:05:27;;;;;;;4.57;2.83;;;;;;;;;;1041594;28;20067;-77
2024/03/10 03:05:57;;;;;;;7.25;2.90;;;;;;;;;;1043972;28;20408;-77
2024/03/10 03:06:28;;;;;;;19.98;2.85;;;;;;;;;;1039886;28;20519;-77
2024/03/10 03:06:58;;;;;;;2.92;2.33;;;;;;;;;;1037751;28;20026;-77
2024/03/10 03:07:29;;;;;;;3.53;2.80;;;;;;;;;;1039737;28;20017;-76
2024/03/10 03:07:59;;;;;;;3.50;3.20;;;;;;;;;;1039918;28;20053;-77
2024/03/10 03:08:30;;;;;;;25.02;3.47;;;;;;;;;;1044040;28;20017;-77
2024/03/10 03:09:04;;;;;;;7.38;3.00;;;;;;;;;;1043817;28;20487;-77
2024/03/10 03:09:35;;;;;;;5.55;2.78;;;;;;;;;;1044022;28;20057;-77
2024/03/10 03:10:05;;;;;;;3.85;2.58;;;;;;;;;;1043932;28;20477;-77
2024/03/10 03:10:36;;;;;;;2.80;2.25;;;;;;;;;;1043990;28;20048;-77
2024/03/10 03:11:09;;;;;;;8.98;4.85;;;;;;;;;;1043839;28;20111;-77
2024/03/10 03:11:40;;;;;;;0.90;0.90;;;;;;;;;;1044487;28;20108;-77
2024/03/10 03:12:10;;;;;;;2.10;2.00;;;;;;;;;;1044038;28;20029;-77
2024/03/10 03:12:42;;;;;;;9.27;2.75;;;;;;;;;;1044340;28;20029;-77
2024/03/10 03:13:12;;;;;;;1.77;1.67;;;;;;;;;;1043843;28;20054;-77
2024/03/10 03:13:43;;;;;;;3.75;3.10;;;;;;;;;;1042067;28;20074;-77
2024/03/10 03:14:13;;;;;;;10.43;2.95;;;;;;;;;;1041832;28;20029;-77
2024/03/10 03:14:44;;;;;;;2.55;2.35;;;;;;;;;;1042149;28;20127;-77
2024/03/10 03:15:18;;;;;;;2.63;1.23;;;;;;;;;;1044714;28;20024;-77
2024/03/10 03:15:51;;;;;;;3.85;2.38;;;;;;;;;;1039978;28;20017;-77
2024/03/10 03:16:21;;;;;;;6.30;2.53;;;;;;;;;;1037751;28;20116;-77
2024/03/10 03:16:52;;;;;;;3.58;2.13;;;;;;;;;;1037940;28;20029;-77
2024/03/10 03:17:24;;;;;;;3.15;2.92;;;;;;;;;;1037860;28;20116;-76
2024/03/10 03:17:54;;;;;;;3.35;3.08;;;;;;;;;;1041805;28;20884;-76
2024/03/10 03:18:25;;;;;;;24.92;5.07;;;;;;;;;;1040032;28;20017;-77
2024/03/10 03:18:56;;;;;;;2.47;2.25;;;;;;;;;;1041614;28;20029;-77
2024/03/10 03:19:26;;;;;;;3.97;3.67;;;;;;;;;;1041333;28;20033;-76
2024/03/10 03:19:59;;;;;;;2.38;2.22;;;;;;;;;;1041895;28;20116;-77
2024/03/10 03:20:30;;;;;;;7.47;4.53;;;;;;;;;;1044250;28;20025;-77
2024/03/10 03:21:00;;;;;;;2.92;1.55;;;;;;;;;;1040147;28;20021;-77
2024/03/10 03:21:33;;;;;;;1.65;1.55;;;;;;;;;;1043687;28;20017;-77
2024/03/10 03:22:06;;;;;;;3.83;2.88;;;;;;;;;;1041712;28;20025;-77
2024/03/10 03:22:37;;;;;;;1.48;1.38;;;;;;;;;;1042473;28;20017;-77